Home   Weather   Spain   Bilbao   Past weeks
Flag for Spain

Past Weather in Bilbao, Basque Country, Spain — May 2020

Currently: 57 °F. Cool. (Weather station: Bilbao / Sondica, Spain). See more current weather

May 2020 Weather in Bilbao — Graph

°F

High & Low Weather Summary for May 2020

 TemperatureHumidityPressure
High91 °F (May 4, 6:00 pm)100% (May 2, 2:00 am)30.54 "Hg (May 2, 2:00 am)
Low46 °F (May 17, 5:30 am)23% (May 28, 3:30 pm)29.65 "Hg (May 4, 5:30 pm)
Average65 °F77%30.06 "Hg
* Reported May 1 12:00 am — May 31 11:30 pm, Bilbao. Weather by CustomWeather, © 2021

Note: Actual official high and low records may vary slightly from our data, if they occured in-between our weather recording intervals... More about our weather records

Bilbao Weather History for May 1, 2020

Scroll right to see more
 ConditionsComfort  
Time TempWeatherWind HumidityBarometerVisibility
12:00 am
Fri, May 1
66 °FPassing clouds.18 mph56%29.89 "HgN/A
12:30 am68 °FPassing clouds.18 mph53%29.89 "HgN/A
1:00 am68 °FPassing clouds.20 mph53%29.89 "HgN/A
1:30 am68 °FPassing clouds.15 mph53%29.89 "HgN/A
2:00 am68 °FPassing clouds.16 mph56%29.89 "HgN/A
2:30 am66 °FPassing clouds.17 mph60%29.89 "HgN/A
3:00 am66 °FPassing clouds.17 mph60%29.92 "HgN/A
3:30 am66 °FPartly cloudy.16 mph60%29.92 "HgN/A
4:00 am66 °FPassing clouds.9 mph60%29.89 "HgN/A
4:30 am66 °FPassing clouds.13 mph60%29.89 "HgN/A
5:00 am66 °FPassing clouds.6 mph60%29.86 "HgN/A
5:30 am66 °FPassing clouds.17 mph60%29.86 "HgN/A
6:00 am66 °FPassing clouds.14 mph60%29.86 "HgN/A
6:30 am68 °FPassing clouds.12 mph56%29.86 "HgN/A
7:00 am68 °FPassing clouds.17 mph56%29.86 "HgN/A
7:30 am66 °FPassing clouds.13 mph60%29.86 "HgN/A
8:00 am68 °FPassing clouds.13 mph56%29.86 "HgN/A
8:30 am68 °FPassing clouds.14 mph60%29.86 "HgN/A
9:00 am68 °FPassing clouds.13 mph60%29.86 "HgN/A
10:00 am68 °FPassing clouds.13 mph64%29.89 "HgN/A
10:30 am68 °FPassing clouds.9 mph64%29.89 "HgN/A
11:00 am68 °FLight rain. Scattered clouds.7 mph69%29.92 "HgN/A
11:30 am68 °FLight rain. Scattered clouds.8 mph73%29.92 "HgN/A
12:00 pm66 °FLight rain. Scattered clouds.8 mph83%29.95 "HgN/A
12:30 pm66 °FPassing clouds.1 mph78%29.95 "HgN/A
1:00 pm68 °FPassing clouds.5 mph73%29.95 "HgN/A
1:30 pm66 °FLight rain. Scattered clouds.8 mph78%29.95 "HgN/A
2:00 pm64 °FLight rain. Scattered clouds.7 mph88%29.98 "HgN/A
2:30 pm64 °FLight rain. Scattered clouds.9 mph88%29.98 "HgN/A
3:00 pm64 °FLight rain. Scattered clouds.7 mph88%29.98 "HgN/A
3:30 pm66 °FScattered clouds.7 mph88%29.98 "HgN/A
4:00 pm66 °FPartly sunny.7 mph83%30.01 "HgN/A
4:30 pm66 °FScattered clouds.6 mph83%30.01 "HgN/A
5:00 pm66 °FScattered clouds.10 mph83%30.01 "HgN/A
5:30 pm66 °FPassing clouds.8 mph83%30.01 "HgN/A
6:00 pm66 °FScattered clouds.12 mph78%30.01 "HgN/A
6:30 pm66 °FScattered clouds.13 mph83%30.01 "HgN/A
6:53 pm66 °FThunderstorms. Scattered clouds.12 mph78%30.04 "HgN/A
7:00 pm66 °FThunderstorms. Scattered clouds.10 mph78%30.04 "HgN/A
7:30 pm64 °FPartly sunny.9 mph83%30.04 "HgN/A
8:00 pm64 °FPartly sunny.6 mph83%30.04 "HgN/A
8:30 pm64 °FPartly sunny.5 mph83%30.04 "HgN/A
9:00 pm64 °FPartly sunny.7 mph83%30.04 "HgN/A
9:30 pm64 °FPassing clouds.2 mph83%30.04 "HgN/A
10:00 pm63 °FPassing clouds.2 mph88%30.07 "HgN/A
10:30 pm63 °FPartly cloudy.No wind88%30.07 "HgN/A
11:00 pm63 °FPartly cloudy.No wind88%30.07 "HgN/A
11:30 pm63 °FPassing clouds.3 mph88%30.07 "HgN/A
Weather by CustomWeather, © 2021

See weather overview